General Aviation Weather

Text Reports

Enter one or more of the following location identifiers separated by a space:

Zip Code, Four-Character ICAO or Three-Character IATA airport codes.

METAR - Aviation Routine Weather Report
KTIP - Rantoul, Illinois
Updated at 3:55 AM GMT on February 07, 2016 (9:55 PM CST):
METAR KTIP 070355Z AUTO 20003KT 10SM CLR 02/00 A3013 RMK AO2 T00170000
TAF - Terminal Area Forecast
KTIP - Rantoul, Illinois
Updated at 3:55 AM GMT on February 07, 2016 (9:55 PM CST):
No TAF is currently available for this location.
Decoded:
No decoded TAF is available.
PIREP - Pilot Weather Report
KTIP - Rantoul, Illinois
Updated at 3:55 AM GMT on February 07, 2016 (9:55 PM CST):
No PIREP is currently available for this location.
AIRMET - Airmens Meteorological Information
KTIP - Rantoul, Illinois
Updated at 3:55 AM GMT on February 07, 2016 (9:55 PM CST):
No AIRMET is currently available for this location.
SIGMET - Significant Meteorological Information
KTIP - Rantoul, Illinois
Updated at 3:55 AM GMT on February 07, 2016 (9:55 PM CST):
No SIGMET is currently available for this location.
NOTAM - Notice to Airmen
KTIP - Rantoul, Illinois
Updated at 3:55 AM GMT on February 07, 2016 (9:55 PM CST):
No NOTAM is currently available for this location.
Forecast Area
KTIP - Rantoul, Illinois
Updated at 3:55 AM GMT on February 07, 2016 (9:55 PM CST):
No NOTAM is currently available for this location.
Aviation Weather Maps